BRZ6115 EGEC-EGPF
Flight info
| Callsign | BRZ6115 |
|---|---|
| Flight time | 0h 30m |
| Altitude | 7000 |
| Route | NORBO |
| Aircraft | DHC6/L-SDFGR/C |
Departure
| Time | 2026-04-20 20:37 |
|---|---|
| Airport | Campbeltown Airport (EGEC) |
Arrival
| Time | 2026-04-20 21:07 |
|---|---|
| Airport | Glasgow Airport (EGPF) |
| Time | Latitude | Longitude | Altitude | Speed | Heading |
|---|---|---|---|---|---|
| 2026-04-20 20:23 | 55.43659 | -5.66252 | 33 ft | 0 kts | 10° |
| 2026-04-20 20:32 | 55.43650 | -5.66228 | 39 ft | 6 kts | 155° |
| 2026-04-20 20:32 | 55.43646 | -5.66225 | 36 ft | 0 kts | 163° |
| 2026-04-20 20:33 | 55.43631 | -5.66218 | 36 ft | 4 kts | 169° |
| 2026-04-20 20:33 | 55.43583 | -5.66220 | 36 ft | 10 kts | 186° |
| 2026-04-20 20:34 | 55.43518 | -5.66248 | 36 ft | 0 kts | 201° |
| 2026-04-20 20:34 | 55.43502 | -5.66257 | 36 ft | 11 kts | 197° |
| 2026-04-20 20:34 | 55.43467 | -5.66271 | 36 ft | 3 kts | 193° |
| 2026-04-20 20:34 | 55.43459 | -5.66276 | 36 ft | 0 kts | 199° |
| 2026-04-20 20:35 | 55.43456 | -5.66278 | 36 ft | 3 kts | 199° |
| 2026-04-20 20:35 | 55.43433 | -5.66290 | 36 ft | 0 kts | 196° |
| 2026-04-20 20:35 | 55.43431 | -5.66291 | 36 ft | 2 kts | 196° |
| 2026-04-20 20:35 | 55.43391 | -5.66318 | 35 ft | 10 kts | 207° |
| 2026-04-20 20:36 | 55.43381 | -5.66467 | 36 ft | 17 kts | 287° |
| 2026-04-20 20:36 | 55.43432 | -5.66779 | 36 ft | 46 kts | 288° |
| 2026-04-20 20:36 | 55.43576 | -5.67724 | 102 ft | 104 kts | 285° |
| 2026-04-20 20:36 | 55.43750 | -5.69021 | 553 ft | 109 kts | 283° |
| 2026-04-20 20:37 | 55.43900 | -5.70470 | 784 ft | 134 kts | 281° |
| 2026-04-20 20:37 | 55.44095 | -5.72096 | 1137 ft | 132 kts | 297° |
| 2026-04-20 20:37 | 55.44571 | -5.73450 | 1513 ft | 130 kts | 306° |
| 2026-04-20 20:37 | 55.45024 | -5.74830 | 1898 ft | 130 kts | 305° |
| 2026-04-20 20:38 | 55.45482 | -5.76193 | 2304 ft | 129 kts | 304° |
| 2026-04-20 20:38 | 55.46003 | -5.77426 | 2676 ft | 125 kts | 334° |
| 2026-04-20 20:38 | 55.46779 | -5.77375 | 2924 ft | 112 kts | 51° |
| 2026-04-20 20:38 | 55.46896 | -5.76221 | 3386 ft | 93 kts | 98° |
| 2026-04-20 20:39 | 55.46874 | -5.75095 | 3784 ft | 92 kts | 91° |
| 2026-04-20 20:39 | 55.46858 | -5.73931 | 4111 ft | 97 kts | 92° |
| 2026-04-20 20:39 | 55.46839 | -5.72729 | 4470 ft | 98 kts | 94° |
| 2026-04-20 20:39 | 55.46746 | -5.71528 | 4870 ft | 97 kts | 97° |
| 2026-04-20 20:40 | 55.46663 | -5.70397 | 5320 ft | 91 kts | 97° |
| 2026-04-20 20:40 | 55.46524 | -5.69286 | 5682 ft | 92 kts | 105° |
| 2026-04-20 20:40 | 55.46356 | -5.68226 | 6074 ft | 91 kts | 103° |
| 2026-04-20 20:40 | 55.46191 | -5.67130 | 6415 ft | 92 kts | 104° |
| 2026-04-20 20:41 | 55.46024 | -5.66008 | 6782 ft | 92 kts | 104° |
| 2026-04-20 20:41 | 55.45864 | -5.64919 | 7140 ft | 95 kts | 104° |
| 2026-04-20 20:41 | 55.45701 | -5.63760 | 7354 ft | 108 kts | 104° |
| 2026-04-20 20:41 | 55.45433 | -5.62436 | 7549 ft | 114 kts | 111° |
| 2026-04-20 20:42 | 55.45270 | -5.61122 | 7903 ft | 111 kts | 96° |
| 2026-04-20 20:42 | 55.45412 | -5.59729 | 8124 ft | 118 kts | 78° |
| 2026-04-20 20:42 | 55.45619 | -5.58346 | 8444 ft | 118 kts | 78° |
| 2026-04-20 20:42 | 55.45849 | -5.56920 | 8676 ft | 120 kts | 77° |
| 2026-04-20 20:43 | 55.46086 | -5.55517 | 8772 ft | 120 kts | 77° |
| 2026-04-20 20:43 | 55.46331 | -5.54071 | 8809 ft | 125 kts | 77° |
| 2026-04-20 20:43 | 55.46588 | -5.52591 | 8834 ft | 127 kts | 77° |
| 2026-04-20 20:43 | 55.46845 | -5.51112 | 8880 ft | 127 kts | 77° |
| 2026-04-20 20:44 | 55.47110 | -5.49580 | 8819 ft | 133 kts | 77° |
| 2026-04-20 20:44 | 55.47383 | -5.48008 | 8840 ft | 133 kts | 76° |
| 2026-04-20 20:44 | 55.47652 | -5.46457 | 8843 ft | 134 kts | 76° |
| 2026-04-20 20:44 | 55.47921 | -5.44911 | 8791 ft | 123 kts | 77° |
| 2026-04-20 20:45 | 55.48159 | -5.43528 | 8573 ft | 114 kts | 76° |
| 2026-04-20 20:45 | 55.48372 | -5.42310 | 8236 ft | 98 kts | 77° |
| 2026-04-20 20:45 | 55.48575 | -5.41115 | 7666 ft | 104 kts | 77° |
| 2026-04-20 20:45 | 55.48804 | -5.39783 | 7333 ft | 121 kts | 77° |
| 2026-04-20 20:46 | 55.49046 | -5.38404 | 7336 ft | 116 kts | 77° |
| 2026-04-20 20:46 | 55.49277 | -5.37072 | 7336 ft | 112 kts | 77° |
| 2026-04-20 20:46 | 55.49503 | -5.35758 | 7319 ft | 112 kts | 78° |
| 2026-04-20 20:46 | 55.49728 | -5.34452 | 7316 ft | 111 kts | 77° |
| 2026-04-20 20:47 | 55.49951 | -5.33160 | 7319 ft | 110 kts | 77° |
| 2026-04-20 20:47 | 55.50171 | -5.31879 | 7317 ft | 109 kts | 76° |
| 2026-04-20 20:47 | 55.50390 | -5.30605 | 7270 ft | 111 kts | 77° |
| 2026-04-20 20:47 | 55.50622 | -5.29236 | 7105 ft | 120 kts | 77° |
| 2026-04-20 20:48 | 55.50863 | -5.27843 | 7106 ft | 113 kts | 77° |
| 2026-04-20 20:48 | 55.51085 | -5.26556 | 7149 ft | 108 kts | 76° |
| 2026-04-20 20:48 | 55.51299 | -5.25312 | 7187 ft | 104 kts | 77° |
| 2026-04-20 20:48 | 55.51508 | -5.24098 | 7219 ft | 103 kts | 78° |
| 2026-04-20 20:49 | 55.51714 | -5.22885 | 7242 ft | 103 kts | 78° |
| 2026-04-20 20:49 | 55.51924 | -5.21666 | 7268 ft | 108 kts | 78° |
| 2026-04-20 20:49 | 55.52149 | -5.20342 | 7378 ft | 121 kts | 76° |
| 2026-04-20 20:49 | 55.52406 | -5.18833 | 7454 ft | 133 kts | 77° |
| 2026-04-20 20:50 | 55.52667 | -5.17312 | 7768 ft | 125 kts | 76° |
| 2026-04-20 20:50 | 55.52919 | -5.15832 | 7979 ft | 127 kts | 77° |
| 2026-04-20 20:50 | 55.53181 | -5.14284 | 8072 ft | 136 kts | 76° |
| 2026-04-20 20:50 | 55.53447 | -5.12723 | 8202 ft | 127 kts | 77° |
| 2026-04-20 20:51 | 55.53707 | -5.11186 | 8065 ft | 135 kts | 77° |
| 2026-04-20 20:51 | 55.53979 | -5.09581 | 7946 ft | 138 kts | 77° |
| 2026-04-20 20:51 | 55.54252 | -5.07969 | 7821 ft | 139 kts | 77° |
| 2026-04-20 20:51 | 55.54536 | -5.06293 | 7716 ft | 148 kts | 76° |
| 2026-04-20 20:52 | 55.54836 | -5.04522 | 7662 ft | 153 kts | 76° |
| 2026-04-20 20:52 | 55.55144 | -5.02716 | 7609 ft | 151 kts | 77° |
| 2026-04-20 20:52 | 55.55443 | -5.00941 | 7489 ft | 151 kts | 76° |
| 2026-04-20 20:52 | 55.55744 | -4.99165 | 7398 ft | 149 kts | 76° |
| 2026-04-20 20:53 | 55.56038 | -4.97417 | 7373 ft | 146 kts | 76° |
| 2026-04-20 20:53 | 55.56330 | -4.95698 | 7373 ft | 145 kts | 76° |
| 2026-04-20 20:53 | 55.56617 | -4.93986 | 7371 ft | 145 kts | 76° |
| 2026-04-20 20:53 | 55.56901 | -4.92300 | 7371 ft | 145 kts | 76° |
| 2026-04-20 20:54 | 55.57187 | -4.90596 | 7363 ft | 145 kts | 76° |
| 2026-04-20 20:54 | 55.57475 | -4.88886 | 7366 ft | 144 kts | 76° |
| 2026-04-20 20:54 | 55.57760 | -4.87184 | 7361 ft | 145 kts | 76° |
| 2026-04-20 20:54 | 55.58047 | -4.85477 | 7365 ft | 144 kts | 76° |
| 2026-04-20 20:55 | 55.58330 | -4.83777 | 7361 ft | 144 kts | 76° |
| 2026-04-20 20:55 | 55.58615 | -4.82076 | 7372 ft | 144 kts | 76° |
| 2026-04-20 20:55 | 55.58900 | -4.80372 | 7328 ft | 147 kts | 76° |
| 2026-04-20 20:55 | 55.59190 | -4.78627 | 7101 ft | 143 kts | 76° |
| 2026-04-20 20:56 | 55.59456 | -4.77031 | 6837 ft | 129 kts | 76° |
| 2026-04-20 20:56 | 55.59715 | -4.75582 | 6523 ft | 121 kts | 68° |
| 2026-04-20 20:56 | 55.60418 | -4.74729 | 6077 ft | 137 kts | 14° |
| 2026-04-20 20:56 | 55.61058 | -4.74716 | 5852 ft | 134 kts | 6° |
| 2026-04-20 20:57 | 55.62277 | -4.74686 | 5427 ft | 131 kts | 8° |
| 2026-04-20 20:57 | 55.63183 | -4.74655 | 5102 ft | 129 kts | 9° |
| 2026-04-20 20:57 | 55.63763 | -4.74637 | 4877 ft | 119 kts | 9° |
| 2026-04-20 20:57 | 55.64583 | -4.74613 | 4331 ft | 127 kts | 10° |
| 2026-04-20 20:58 | 55.65557 | -4.74561 | 3925 ft | 146 kts | 8° |
| 2026-04-20 20:58 | 55.66578 | -4.74525 | 3602 ft | 142 kts | 8° |
| 2026-04-20 20:58 | 55.67512 | -4.74504 | 3381 ft | 124 kts | 9° |
| 2026-04-20 20:58 | 55.68303 | -4.74496 | 2995 ft | 110 kts | 9° |
| 2026-04-20 20:59 | 55.69061 | -4.74494 | 2565 ft | 107 kts | 9° |
| 2026-04-20 20:59 | 55.69707 | -4.74191 | 2123 ft | 89 kts | 42° |
| 2026-04-20 20:59 | 55.70259 | -4.73702 | 1776 ft | 95 kts | 37° |
| 2026-04-20 20:59 | 55.70829 | -4.73207 | 1736 ft | 78 kts | 36° |
| 2026-04-20 21:00 | 55.71324 | -4.72474 | 1562 ft | 111 kts | 47° |
| 2026-04-20 21:00 | 55.71888 | -4.71604 | 1838 ft | 101 kts | 49° |
| 2026-04-20 21:00 | 55.72416 | -4.70711 | 1819 ft | 110 kts | 50° |
| 2026-04-20 21:00 | 55.72969 | -4.69735 | 1809 ft | 111 kts | 51° |
| 2026-04-20 21:01 | 55.73524 | -4.68735 | 1726 ft | 117 kts | 51° |
| 2026-04-20 21:01 | 55.74120 | -4.67661 | 1747 ft | 130 kts | 51° |
| 2026-04-20 21:01 | 55.74763 | -4.66462 | 1756 ft | 137 kts | 51° |
| 2026-04-20 21:01 | 55.75427 | -4.65224 | 1759 ft | 139 kts | 50° |
| 2026-04-20 21:02 | 55.76103 | -4.63969 | 1757 ft | 141 kts | 50° |
| 2026-04-20 21:02 | 55.76791 | -4.62696 | 1753 ft | 142 kts | 51° |
| 2026-04-20 21:02 | 55.77475 | -4.61428 | 1743 ft | 143 kts | 51° |
| 2026-04-20 21:02 | 55.78155 | -4.60169 | 1740 ft | 138 kts | 51° |
| 2026-04-20 21:03 | 55.78798 | -4.58973 | 1727 ft | 127 kts | 51° |
| 2026-04-20 21:03 | 55.79381 | -4.57890 | 1705 ft | 118 kts | 51° |
| 2026-04-20 21:03 | 55.79920 | -4.56879 | 1726 ft | 109 kts | 52° |
| 2026-04-20 21:03 | 55.80422 | -4.55940 | 1708 ft | 102 kts | 51° |
| 2026-04-20 21:04 | 55.80913 | -4.55024 | 1590 ft | 91 kts | 49° |
| 2026-04-20 21:04 | 55.81323 | -4.54269 | 1226 ft | 90 kts | 51° |
| 2026-04-20 21:04 | 55.81787 | -4.53394 | 1008 ft | 97 kts | 48° |
| 2026-04-20 21:04 | 55.82227 | -4.52584 | 888 ft | 99 kts | 48° |
| 2026-04-20 21:05 | 55.82692 | -4.51704 | 954 ft | 86 kts | 48° |
| 2026-04-20 21:05 | 55.83065 | -4.51026 | 945 ft | 71 kts | 50° |
| 2026-04-20 21:05 | 55.83414 | -4.50371 | 872 ft | 75 kts | 52° |
| 2026-04-20 21:05 | 55.83794 | -4.49661 | 769 ft | 76 kts | 49° |
| 2026-04-20 21:06 | 55.84170 | -4.48959 | 662 ft | 79 kts | 47° |
| 2026-04-20 21:06 | 55.84544 | -4.48261 | 528 ft | 77 kts | 46° |
| 2026-04-20 21:06 | 55.84946 | -4.47508 | 447 ft | 80 kts | 46° |
| 2026-04-20 21:06 | 55.85312 | -4.46832 | 314 ft | 72 kts | 45° |
| 2026-04-20 21:07 | 55.85695 | -4.46129 | 249 ft | 76 kts | 45° |
| 2026-04-20 21:07 | 55.86061 | -4.45446 | 165 ft | 77 kts | 44° |
| 2026-04-20 21:07 | 55.86410 | -4.44783 | 40 ft | 68 kts | 43° |
| 2026-04-20 21:07 | 55.86686 | -4.44286 | 28 ft | 35 kts | 49° |
| 2026-04-20 21:08 | 55.86718 | -4.44195 | 23 ft | 6 kts | 220° |
| 2026-04-20 21:08 | 55.86660 | -4.44275 | 50 ft | 12 kts | 179° |
| 2026-04-20 21:08 | 55.86619 | -4.44134 | 46 ft | 16 kts | 90° |
| 2026-04-20 21:08 | 55.86618 | -4.44100 | 46 ft | 0 kts | 98° |
| 2026-04-20 21:09 | 55.86617 | -4.44086 | 49 ft | 3 kts | 105° |
| 2026-04-20 21:10 | 55.86576 | -4.44042 | 45 ft | 11 kts | 174° |
| 2026-04-20 21:10 | 55.86503 | -4.43982 | 47 ft | 12 kts | 157° |
| 2026-04-20 21:10 | 55.86477 | -4.43990 | 47 ft | 4 kts | 252° |
| 2026-04-20 21:10 | 55.86447 | -4.44055 | 48 ft | 9 kts | 237° |
| 2026-04-20 21:11 | 55.86443 | -4.44067 | 48 ft | 0 kts | 240° |